Time;durP1;ratioP1;P1;durP2;ratioP2;P2;SDS_P1;SDS_P2;PMS_P1;PMS_P2;Temp;Humidity;BMP_temperature;BMP_pressure;BME280_temperature;BME280_humidity;BME280_pressure;Samples;Min_cycle;Max_cycle;Signal;HPM_P1;HPM_P2
2021/08/06 00:01:33;;;;;;;8.80;6.80;;;20.80;99.90;;;21.10;67.84;99987.84;5075367;28;20060;-66
2021/08/06 00:04:02;;;;;;;7.72;7.10;;;20.80;99.90;;;21.01;67.86;99997.31;5075289;28;20075;-66
2021/08/06 00:06:39;;;;;;;7.00;6.43;;;20.70;99.90;;;21.07;67.91;99994.25;5075906;28;20040;-67
2021/08/06 00:09:10;;;;;;;7.35;6.65;;;20.70;99.90;;;20.98;68.82;100008.22;5057727;28;20131;-67
2021/08/06 00:11:39;;;;;;;6.82;6.10;;;20.70;99.90;;;20.72;70.22;99989.25;5075448;28;20106;-66
2021/08/06 00:14:08;;;;;;;7.43;6.70;;;20.50;99.90;;;20.79;70.82;99988.78;5075151;28;20032;-66
2021/08/06 00:16:37;;;;;;;7.82;7.10;;;20.50;99.90;;;20.77;71.85;99988.00;5075017;28;20072;-67
2021/08/06 00:19:05;;;;;;;7.75;7.05;;;20.50;99.90;;;19.81;71.83;99817.41;5075280;28;20036;-67
2021/08/06 00:21:34;;;;;;;8.00;7.15;;;20.40;99.90;;;20.61;72.42;99988.06;5075016;28;20074;-66
2021/08/06 00:24:02;;;;;;;7.47;6.78;;;20.40;99.90;;;20.46;73.56;99991.66;5074955;28;20059;-66
2021/08/06 00:26:32;;;;;;;7.53;6.25;;;20.20;99.90;;;20.42;73.80;99973.16;5074847;28;20090;-67
2021/08/06 00:29:00;;;;;;;7.23;6.50;;;20.20;99.90;;;20.29;74.51;99981.03;5074744;28;20044;-66
2021/08/06 00:31:29;;;;;;;8.68;6.63;;;20.10;99.90;;;20.35;75.32;99980.69;5075261;28;20286;-66
2021/08/06 00:34:01;;;;;;;6.88;6.18;;;20.00;99.90;;;20.29;75.80;99988.22;5056922;28;20605;-66
2021/08/06 00:36:32;;;;;;;7.63;6.80;;;20.00;99.90;;;20.25;76.06;99998.28;5074878;28;20070;-66
2021/08/06 00:39:00;;;;;;;10.32;6.70;;;20.00;99.90;;;20.29;77.71;99969.41;5074025;28;20041;-68
2021/08/06 00:41:36;;;;;;;11.77;6.25;;;20.00;99.90;;;20.35;78.27;99983.38;5056976;28;20127;-69
2021/08/06 00:44:05;;;;;;;6.65;5.75;;;20.00;99.90;;;20.29;79.15;99970.28;5056850;28;20052;-69
2021/08/06 00:46:34;;;;;;;9.68;6.05;;;20.00;99.90;;;20.21;79.90;99977.94;5074491;28;20574;-69
2021/08/06 00:49:04;;;;;;;6.97;6.15;;;19.90;99.90;;;19.53;80.61;99879.00;5056788;28;20049;-69
2021/08/06 00:51:38;;;;;;;6.63;5.93;;;19.80;99.90;;;19.98;81.14;99974.78;5056741;28;20075;-69
2021/08/06 00:54:07;;;;;;;7.72;6.07;;;19.70;99.90;;;19.99;82.22;99985.47;5056708;28;20445;-70
2021/08/06 00:56:56;;;;;;;8.63;6.55;;;19.70;99.90;;;19.96;82.75;99965.97;5056546;28;20045;-69
2021/08/06 00:59:25;;;;;;;8.48;6.80;;;19.60;99.90;;;19.80;83.55;99968.69;5056574;28;20131;-69
2021/08/06 01:02:04;;;;;;;7.47;6.20;;;19.50;99.90;;;19.61;84.21;99968.84;5073129;28;20494;-68
2021/08/06 01:04:42;;;;;;;13.18;6.43;;;19.40;99.90;;;19.57;85.05;99959.22;5073113;28;20044;-68
2021/08/06 01:07:15;;;;;;;9.85;7.30;;;19.30;99.90;;;19.55;85.85;99945.03;5056419;28;20058;-68
2021/08/06 01:09:53;;;;;;;8.38;6.60;;;19.30;99.90;;;19.58;86.21;99952.91;5073208;28;20044;-68
2021/08/06 01:12:42;;;;;;;6.78;6.05;;;19.30;99.90;;;19.44;86.15;99943.88;5056327;28;20060;-68
2021/08/06 01:15:12;;;;;;;7.45;6.32;;;19.20;99.90;;;19.43;86.52;99943.03;5056440;28;20056;-68
2021/08/06 01:17:45;;;;;;;7.47;6.68;;;19.20;99.90;;;19.02;87.36;99898.81;5056212;28;20437;-68
2021/08/06 01:20:21;;;;;;;9.15;7.60;;;19.00;99.90;;;19.04;88.21;99944.31;5056147;28;20371;-68
2021/08/06 01:22:57;;;;;;;8.90;7.40;;;18.80;99.90;;;19.04;88.98;99945.19;5072753;28;20048;-68
2021/08/06 01:25:51;;;;;;;7.82;7.07;;;18.70;99.90;;;18.95;88.89;99934.09;5073011;28;20105;-68
2021/08/06 01:28:33;;;;;;;8.70;7.90;;;18.60;99.90;;;18.78;89.10;99881.38;5072615;28;20041;-68
2021/08/06 01:31:06;;;;;;;8.13;7.30;;;18.70;99.90;;;18.87;89.58;99926.47;5056058;28;20056;-68
2021/08/06 01:33:41;;;;;;;8.65;7.10;;;18.60;99.90;;;18.77;90.00;99901.97;5073661;28;20074;-67
2021/08/06 01:36:11;;;;;;;7.32;6.68;;;18.60;99.90;;;18.81;89.83;99919.56;5055856;28;20044;-68
2021/08/06 01:38:40;;;;;;;8.80;7.97;;;18.50;99.90;;;18.75;90.56;99922.63;5072516;28;20416;-68
2021/08/06 01:41:19;;;;;;;8.00;7.18;;;18.40;99.90;;;18.69;90.61;99920.25;5056069;28;20446;-68
2021/08/06 01:44:05;;;;;;;8.48;7.68;;;18.40;99.90;;;18.81;90.76;99911.53;5055985;28;20057;-68
2021/08/06 01:46:44;;;;;;;7.60;6.80;;;18.40;99.90;;;18.89;90.36;99921.88;5055935;28;20053;-68
2021/08/06 01:49:17;;;;;;;8.73;7.13;;;18.50;99.90;;;16.88;89.91;99539.19;5073459;28;20583;-68
2021/08/06 01:51:56;;;;;;;7.55;6.85;;;18.70;99.90;;;19.09;89.42;99915.41;5072413;28;20045;-68
2021/08/06 01:54:31;;;;;;;7.65;6.88;;;18.80;99.90;;;18.93;89.25;99892.13;5055623;28;20051;-68
2021/08/06 01:57:03;;;;;;;7.65;6.25;;;18.80;99.90;;;19.14;89.66;99918.72;5055644;28;20047;-68
2021/08/06 01:59:32;;;;;;;7.72;6.28;;;18.80;99.90;;;19.25;89.18;99916.31;5072138;28;20391;-68
2021/08/06 02:02:03;;;;;;;8.40;6.57;;;18.90;99.90;;;19.05;88.84;99882.56;5055465;28;20044;-69
2021/08/06 02:04:34;;;;;;;15.07;6.38;;;18.90;99.90;;;19.08;88.54;99879.72;5072151;28;20079;-68
2021/08/06 02:07:16;;;;;;;8.93;6.40;;;19.00;99.90;;;19.27;88.54;99903.69;5055463;28;20074;-68
2021/08/06 02:09:48;;;;;;;6.70;6.10;;;19.00;99.90;;;19.20;88.06;99881.72;5055441;28;20048;-68
2021/08/06 02:12:26;;;;;;;7.07;5.47;;;19.10;99.90;;;19.47;88.08;99901.66;5072144;28;20059;-68
2021/08/06 02:15:01;;;;;;;7.10;5.45;;;19.10;99.90;;;19.51;87.97;99913.09;5055201;28;20074;-67
2021/08/06 02:17:33;;;;;;;7.43;5.45;;;19.20;99.90;;;19.43;87.93;99884.03;5055317;28;20044;-68
2021/08/06 02:20:11;;;;;;;5.57;4.53;;;19.20;99.90;;;19.46;87.38;99877.59;5073326;28;20033;-68
2021/08/06 02:22:47;;;;;;;6.18;5.55;;;19.30;99.90;;;19.77;87.14;99912.47;5055595;28;20052;-67
2021/08/06 02:25:23;;;;;;;6.53;4.70;;;19.40;99.90;;;19.84;86.92;99905.78;5055226;28;20044;-67
2021/08/06 02:27:57;;;;;;;7.63;5.40;;;19.50;99.90;;;19.80;86.59;99915.00;5054827;28;20132;-67
2021/08/06 02:30:33;;;;;;;6.40;5.40;;;19.50;99.90;;;19.59;86.92;99876.81;5071948;28;20048;-67
2021/08/06 02:33:02;;;;;;;5.75;4.72;;;19.40;99.90;;;19.86;86.90;99913.78;5071847;28;20052;-68
2021/08/06 02:35:30;;;;;;;6.47;4.88;;;19.50;99.90;;;19.86;86.75;99905.72;5054920;28;20103;-67
2021/08/06 02:37:59;;;;;;;4.90;4.50;;;19.50;99.90;;;19.91;86.43;99915.25;5055022;28;20045;-67
2021/08/06 02:40:28;;;;;;;7.83;5.70;;;19.60;99.90;;;19.47;86.72;99831.91;5055063;28;20048;-67
2021/08/06 02:42:58;;;;;;;6.38;5.20;;;19.60;99.90;;;19.96;86.75;99910.47;5055035;28;20139;-67
2021/08/06 02:45:27;;;;;;;7.88;4.90;;;19.60;99.90;;;19.71;86.44;99870.75;5073012;28;20045;-67
2021/08/06 02:47:56;;;;;;;7.65;5.32;;;19.60;99.90;;;19.99;86.53;99907.63;5055058;28;20055;-67
2021/08/06 02:50:24;;;;;;;5.97;5.05;;;19.60;99.90;;;20.06;86.29;99900.06;5072657;28;20470;-67
2021/08/06 02:52:53;;;;;;;7.70;4.88;;;19.70;99.90;;;19.99;86.25;99898.69;5055265;28;20457;-68
2021/08/06 02:55:22;;;;;;;6.10;4.70;;;19.70;99.90;;;20.00;86.12;99921.88;5054969;28;20053;-68
2021/08/06 02:57:51;;;;;;;6.15;4.93;;;19.70;99.90;;;18.50;85.42;99666.88;5054657;28;20098;-67
2021/08/06 03:00:21;;;;;;;6.93;5.05;;;19.60;99.90;;;19.96;85.41;99899.72;5072863;28;20044;-67
2021/08/06 03:02:54;;;;;;;10.50;5.35;;;19.60;99.90;;;19.86;84.85;99914.63;5056268;28;20072;-67
2021/08/06 03:05:23;;;;;;;7.60;5.60;;;19.50;99.90;;;19.95;84.95;99900.69;5058648;28;20052;-68
2021/08/06 03:07:54;;;;;;;4.70;4.30;;;19.50;99.90;;;19.93;84.49;99910.66;5058679;28;20045;-68
2021/08/06 03:10:25;;;;;;;5.50;4.47;;;19.50;99.90;;;19.84;84.56;99876.28;5058731;28;20070;-67
2021/08/06 03:12:54;;;;;;;6.45;4.78;;;19.60;99.90;;;20.01;84.54;99892.28;5058249;28;20083;-67
2021/08/06 03:15:25;;;;;;;9.05;5.15;;;19.70;99.90;;;20.12;84.21;99900.56;5058299;28;20055;-67
2021/08/06 03:17:54;;;;;;;5.82;5.32;;;19.70;99.90;;;19.97;84.08;99869.25;5076106;28;20378;-67
2021/08/06 03:20:24;;;;;;;6.95;6.35;;;19.70;99.90;;;19.96;83.94;99856.78;5076365;28;20075;-67
2021/08/06 03:22:56;;;;;;;6.88;6.18;;;19.70;99.90;;;20.14;83.79;99898.66;5058427;28;20051;-67
2021/08/06 03:25:24;;;;;;;7.68;6.97;;;19.70;99.90;;;20.10;83.98;99898.91;5076324;28;20079;-67
2021/08/06 03:27:56;;;;;;;7.38;6.68;;;19.70;99.90;;;20.11;83.82;99897.97;5058200;28;20381;-67
2021/08/06 03:30:29;;;;;;;7.28;6.57;;;19.70;99.90;;;20.11;83.87;99887.25;5058405;28;20433;-67
2021/08/06 03:32:59;;;;;;;8.05;7.00;;;19.70;99.90;;;20.15;83.86;99892.31;5058454;28;20382;-67
2021/08/06 03:35:29;;;;;;;7.80;7.00;;;19.70;99.90;;;20.05;83.82;99888.47;5058020;28;20052;-67
2021/08/06 03:37:57;;;;;;;9.45;6.95;;;19.70;99.90;;;20.09;83.92;99890.00;5076031;28;20036;-67
2021/08/06 03:40:26;;;;;;;9.90;7.30;;;19.70;99.90;;;20.10;83.92;99889.03;5058051;28;20052;-67
2021/08/06 03:42:55;;;;;;;7.85;6.75;;;19.70;99.90;;;20.10;84.09;99891.72;5074673;28;20048;-67
2021/08/06 03:45:24;;;;;;;6.85;6.20;;;19.70;99.90;;;20.07;84.00;99888.38;5074650;28;20044;-67
2021/08/06 03:47:54;;;;;;;8.68;7.38;;;19.70;99.90;;;20.08;83.87;99896.31;5074555;28;20136;-67
2021/08/06 03:50:26;;;;;;;7.65;6.68;;;19.70;99.90;;;20.05;83.75;99888.47;5057972;28;20640;-67
2021/08/06 03:52:55;;;;;;;10.05;7.05;;;19.60;99.90;;;19.94;84.00;99871.25;5057891;28;20053;-67
2021/08/06 03:55:24;;;;;;;8.45;7.25;;;19.70;99.90;;;20.08;83.97;99893.66;5057793;28;20063;-67
2021/08/06 03:57:55;;;;;;;7.38;6.68;;;19.60;99.90;;;19.99;84.45;99904.94;5057569;28;20486;-67
2021/08/06 04:00:27;;;;;;;8.10;6.30;;;19.60;99.90;;;19.83;84.45;99882.59;5057742;28;20050;-67
2021/08/06 04:02:57;;;;;;;8.48;6.40;;;19.60;99.90;;;20.02;84.76;99903.88;5057632;28;20056;-67
2021/08/06 04:05:27;;;;;;;7.43;6.72;;;19.60;99.90;;;19.80;84.99;99872.06;5057666;28;20064;-67
2021/08/06 04:07:56;;;;;;;9.82;6.97;;;19.60;99.90;;;20.06;84.95;99892.00;5057306;28;20139;-67
2021/08/06 04:10:27;;;;;;;12.15;6.88;;;19.70;99.90;;;20.13;84.83;99913.03;5057599;28;20075;-67
2021/08/06 04:12:56;;;;;;;9.82;7.05;;;19.70;99.90;;;20.10;84.74;99899.78;5057178;28;20049;-67
2021/08/06 04:15:25;;;;;;;9.43;7.22;;;19.70;99.90;;;19.98;84.77;99887.06;5056973;28;20075;-67
2021/08/06 04:17:54;;;;;;;8.05;6.70;;;19.70;99.90;;;20.14;84.67;99906.72;5057165;28;20044;-67
2021/08/06 04:20:24;;;;;;;9.50;6.97;;;19.70;99.90;;;20.18;84.57;99937.84;5074252;28;20094;-67
2021/08/06 04:22:53;;;;;;;10.02;7.22;;;19.80;99.90;;;20.20;84.39;99908.19;5075398;28;20037;-67
2021/08/06 04:25:22;;;;;;;8.18;7.38;;;19.80;99.90;;;19.99;84.84;99869.16;5057179;28;20106;-67
2021/08/06 04:27:51;;;;;;;9.77;7.90;;;19.80;99.90;;;20.23;84.47;99906.19;5057188;28;20070;-67
2021/08/06 04:30:20;;;;;;;11.82;7.82;;;19.80;99.90;;;20.15;84.25;99889.63;5075048;28;20052;-67
2021/08/06 04:32:48;;;;;;;8.75;7.63;;;19.80;99.90;;;20.17;84.16;99922.63;5075170;28;20056;-67
2021/08/06 04:35:18;;;;;;;15.38;7.65;;;19.80;99.90;;;20.11;83.96;99892.59;5074929;28;20463;-67
2021/08/06 04:37:50;;;;;;;7.90;7.20;;;19.70;99.90;;;19.83;84.19;99874.56;5074575;28;20036;-68
2021/08/06 04:40:20;;;;;;;8.05;6.93;;;19.70;99.90;;;20.09;84.25;99922.22;5073843;28;20173;-68
2021/08/06 04:42:49;;;;;;;8.07;6.97;;;19.70;99.90;;;20.01;84.34;99903.03;5056922;28;20044;-68
2021/08/06 04:45:18;;;;;;;9.63;7.30;;;19.70;99.90;;;20.10;84.08;99929.31;5056948;28;20490;-67
2021/08/06 04:47:49;;;;;;;8.00;7.20;;;19.70;99.90;;;19.92;84.07;99891.97;5056525;28;20049;-68
2021/08/06 04:50:21;;;;;;;9.38;7.28;;;19.70;99.90;;;20.01;83.93;99918.25;5056780;28;20446;-68
2021/08/06 04:52:57;;;;;;;10.63;6.95;;;19.60;99.90;;;19.34;84.20;99793.34;5056698;28;20517;-68
2021/08/06 04:55:28;;;;;;;12.95;8.20;;;19.70;99.90;;;20.09;84.21;99932.94;5073413;28;20048;-67
2021/08/06 04:57:59;;;;;;;14.23;8.90;;;19.70;99.90;;;20.08;84.09;99916.94;5073544;28;20048;-67
2021/08/06 05:00:27;;;;;;;9.90;7.85;;;19.70;99.90;;;20.05;84.30;99915.31;5056569;28;20044;-67
2021/08/06 05:02:57;;;;;;;16.10;8.13;;;19.60;99.90;;;19.43;84.33;99824.16;5074048;28;20056;-67
2021/08/06 05:05:30;;;;;;;9.98;7.75;;;19.60;99.90;;;20.03;84.35;99914.53;5056282;28;20048;-67
2021/08/06 05:08:03;;;;;;;11.20;7.80;;;19.60;99.90;;;19.96;84.41;99909.59;5073968;28;20494;-68
2021/08/06 05:10:32;;;;;;;16.73;7.28;;;19.60;99.90;;;19.99;84.36;99904.94;5056413;28;20106;-68
2021/08/06 05:13:00;;;;;;;8.50;7.05;;;19.60;99.90;;;20.00;84.47;99906.66;5072913;28;20045;-66
2021/08/06 05:15:29;;;;;;;8.07;7.10;;;19.60;99.90;;;20.02;84.50;99919.97;5074093;28;20045;-67
2021/08/06 05:18:01;;;;;;;9.52;6.78;;;19.60;99.90;;;19.80;84.54;99880.13;5055917;28;20048;-66
2021/08/06 05:20:30;;;;;;;7.18;6.47;;;19.50;99.90;;;19.94;84.66;99912.38;5056204;28;20090;-67
2021/08/06 05:23:01;;;;;;;10.68;6.75;;;19.50;99.90;;;19.90;84.48;99912.66;5056090;28;20048;-67
2021/08/06 05:25:29;;;;;;;8.40;7.35;;;19.50;99.90;;;19.75;84.95;99917.94;5073421;28;20044;-67
2021/08/06 05:27:58;;;;;;;9.18;6.68;;;19.40;99.90;;;19.66;84.76;99901.50;5055984;28;20046;-67
2021/08/06 05:30:27;;;;;;;8.50;7.32;;;19.40;99.90;;;19.72;84.78;99912.72;5055604;28;20470;-68
2021/08/06 05:32:55;;;;;;;10.35;7.90;;;19.30;99.90;;;19.76;84.58;99926.88;5055924;28;20139;-67
2021/08/06 05:35:27;;;;;;;9.82;7.35;;;19.40;99.90;;;19.66;84.58;99896.13;5073684;28;20549;-67
2021/08/06 05:38:00;;;;;;;8.75;7.63;;;19.40;99.90;;;19.86;84.51;99928.03;5055352;28;20048;-68
2021/08/06 05:40:29;;;;;;;11.15;8.05;;;19.40;99.90;;;19.67;84.32;99893.34;5055581;28;20379;-67
2021/08/06 05:42:59;;;;;;;15.73;8.90;;;19.50;99.90;;;19.78;83.91;99919.59;5055242;28;20056;-67
2021/08/06 05:45:30;;;;;;;13.10;8.75;;;19.50;99.90;;;19.74;84.29;99918.03;5072431;28;20072;-67
2021/08/06 05:48:00;;;;;;;9.47;8.50;;;19.40;99.90;;;19.61;84.38;99885.66;5073672;28;20406;-69
2021/08/06 05:50:41;;;;;;;9.85;8.75;;;19.40;99.90;;;19.93;84.25;99928.56;5072225;28;20294;-69
2021/08/06 05:53:18;;;;;;;9.63;8.23;;;19.50;99.90;;;19.95;83.89;99934.72;5055402;28;20106;-69
2021/08/06 05:55:53;;;;;;;11.05;8.07;;;19.50;99.90;;;19.95;83.86;99932.03;5072276;28;20049;-69
2021/08/06 05:58:22;;;;;;;11.65;8.55;;;19.60;99.90;;;19.90;84.12;99936.81;5071792;28;20072;-69
2021/08/06 06:00:51;;;;;;;12.88;8.45;;;19.50;99.90;;;19.53;83.82;99882.53;5072104;28;20036;-69
2021/08/06 06:03:30;;;;;;;10.85;6.82;;;19.50;99.90;;;19.73;83.95;99935.94;5055467;28;20044;-69
2021/08/06 06:06:28;;;;;;;8.43;6.85;;;19.40;99.90;;;19.82;84.25;99934.56;5055121;28;20053;-69
2021/08/06 06:09:00;;;;;;;12.23;7.35;;;19.50;99.90;;;19.74;84.05;99931.44;5072152;28;20122;-69
2021/08/06 06:11:29;;;;;;;;;;;19.40;99.90;;;19.76;84.39;99941.13;5072488;28;20071;-69
2021/08/06 06:14:00;;;;;;;10.43;7.05;;;19.40;99.90;;;19.80;84.06;99958.78;5055317;28;19973;-69
2021/08/06 06:16:29;;;;;;;13.57;7.35;;;19.40;99.90;;;19.72;84.34;99938.72;5055673;28;20048;-69
2021/08/06 06:18:59;;;;;;;13.95;7.32;;;19.40;99.90;;;19.72;84.24;99911.88;5055422;28;20071;-69
2021/08/06 06:21:28;;;;;;;11.07;7.50;;;19.50;99.90;;;19.72;83.74;99928.00;5055297;28;20040;-69
2021/08/06 06:23:56;;;;;;;15.40;8.13;;;19.40;99.90;;;19.77;82.96;99939.31;5073081;28;20440;-70
2021/08/06 06:26:26;;;;;;;11.65;7.70;;;19.40;99.90;;;19.77;83.06;99933.94;5054910;28;20044;-69
2021/08/06 06:28:55;;;;;;;12.15;6.82;;;19.50;99.90;;;19.77;82.62;99942.88;5054809;28;20163;-70
2021/08/06 06:31:23;;;;;;;12.77;7.63;;;19.40;99.90;;;19.72;82.09;99936.03;5071530;28;20075;-69
2021/08/06 06:33:53;;;;;;;15.82;9.38;;;19.40;99.90;;;19.73;82.02;99937.75;5054735;28;20048;-69
2021/08/06 06:36:22;;;;;;;12.75;8.93;;;19.40;99.90;;;19.82;81.83;99949.81;5055003;28;20064;-70
2021/08/06 06:38:50;;;;;;;14.75;9.73;;;19.40;99.90;;;19.80;81.52;99934.63;5075496;28;20037;-69
2021/08/06 06:41:19;;;;;;;14.90;10.25;;;19.50;99.90;;;19.94;81.14;99967.91;5077092;28;20044;-69
2021/08/06 06:43:57;;;;;;;14.70;9.07;;;19.60;99.90;;;20.02;81.04;99957.56;5076541;28;20048;-69
2021/08/06 06:46:27;;;;;;;16.35;9.55;;;19.60;99.90;;;20.13;81.32;99942.56;5059803;28;20071;-69
2021/08/06 06:48:56;;;;;;;12.95;8.50;;;19.80;99.90;;;20.28;80.17;99941.72;5059661;28;20052;-70
2021/08/06 06:51:24;;;;;;;16.52;8.93;;;19.90;99.90;;;20.34;80.05;99951.25;5059566;28;20055;-69
2021/08/06 06:53:53;;;;;;;15.40;8.60;;;19.90;99.90;;;20.44;79.83;99953.28;5059384;28;20156;-69
2021/08/06 06:56:22;;;;;;;11.48;7.70;;;20.00;99.90;;;20.50;79.90;99944.84;5076881;28;20048;-70
2021/08/06 06:58:50;;;;;;;19.23;8.20;;;20.20;99.90;;;20.73;79.64;99964.97;5058447;28;20051;-68
2021/08/06 07:01:23;;;;;;;12.07;7.57;;;20.30;99.90;;;20.51;78.85;99951.09;5075645;28;20056;-69
2021/08/06 07:03:52;;;;;;;16.65;7.38;;;20.30;99.90;;;20.54;78.47;100008.19;5058854;28;20040;-67
2021/08/06 07:06:20;;;;;;;11.65;7.03;;;20.20;99.90;;;20.62;78.66;99979.06;5076697;28;20079;-68
2021/08/06 07:08:50;;;;;;;11.20;6.93;;;20.20;99.90;;;20.68;78.94;99969.75;5059002;28;20048;-71
2021/08/06 07:11:18;;;;;;;13.75;6.55;;;20.30;99.90;;;20.68;78.89;99967.94;5059273;28;20488;-71
2021/08/06 07:13:47;;;;;;;14.20;6.97;;;20.30;99.90;;;20.59;78.73;99967.63;5075362;28;20078;-70
2021/08/06 07:16:17;;;;;;;13.82;7.53;;;20.30;99.90;;;20.57;78.47;99981.16;5058827;28;20048;-71
2021/08/06 07:18:49;;;;;;;14.35;7.30;;;20.20;99.90;;;20.39;78.28;99951.81;5058745;28;20405;-72
2021/08/06 07:21:18;;;;;;;11.38;7.13;;;20.10;99.90;;;20.35;77.83;99972.63;5058703;28;20490;-71
2021/08/06 07:23:51;;;;;;;11.73;7.07;;;20.00;99.90;;;20.17;78.24;99948.66;5059036;28;20102;-72
2021/08/06 07:26:20;;;;;;;13.63;6.85;;;19.90;99.90;;;20.25;78.39;99967.88;5076930;28;20093;-68
2021/08/06 07:28:49;;;;;;;10.80;7.88;;;20.00;99.90;;;20.38;78.27;99967.06;5076137;28;20140;-68
2021/08/06 07:31:17;;;;;;;12.38;7.80;;;19.90;99.90;;;20.24;78.18;99975.09;5075999;28;20464;-68
2021/08/06 07:33:46;;;;;;;14.88;8.63;;;20.00;99.90;;;20.24;78.03;99974.22;5058843;28;20052;-67
2021/08/06 07:36:16;;;;;;;13.52;8.05;;;19.90;99.90;;;20.45;78.93;99970.25;5075185;28;20056;-67
2021/08/06 07:38:44;;;;;;;13.00;8.27;;;20.00;99.90;;;20.27;79.40;99931.91;5058744;28;20044;-73
2021/08/06 07:41:17;;;;;;;11.52;8.35;;;20.20;99.90;;;20.74;78.82;99968.50;5058229;28;20080;-70
2021/08/06 07:43:46;;;;;;;13.65;7.32;;;20.30;99.90;;;20.80;77.67;99969.03;5058187;28;20059;-67
2021/08/06 07:46:15;;;;;;;13.45;6.65;;;20.40;99.90;;;20.77;76.70;99968.34;5058309;28;20508;-70
2021/08/06 07:48:43;;;;;;;12.05;6.07;;;20.40;99.90;;;20.78;76.96;99964.69;5075119;28;20052;-71
2021/08/06 07:51:12;;;;;;;9.07;6.70;;;20.40;99.90;;;20.50;76.99;99958.28;5075789;28;20053;-74
2021/08/06 07:53:43;;;;;;;9.77;6.88;;;20.30;99.90;;;20.32;76.72;99931.66;5057522;28;20051;-71
2021/08/06 07:56:13;;;;;;;12.80;6.57;;;20.30;99.90;;;20.65;76.85;99983.38;5074945;28;20050;-76
2021/08/06 07:58:42;;;;;;;11.95;7.30;;;20.30;99.90;;;20.74;77.52;99977.44;5057937;28;20074;-79
2021/08/06 08:01:10;;;;;;;10.43;6.78;;;20.30;99.90;;;20.10;76.79;99889.03;5058848;28;20040;-69
2021/08/06 08:03:39;;;;;;;11.85;7.47;;;20.30;99.90;;;20.59;76.85;99992.69;5058825;28;20642;-72
2021/08/06 08:06:08;;;;;;;12.85;8.02;;;20.20;99.90;;;20.48;77.58;99948.56;5057973;28;20056;-73
2021/08/06 08:08:37;;;;;;;11.40;7.22;;;20.30;99.90;;;20.64;77.29;99968.22;5058002;28;20136;-76
2021/08/06 08:11:10;;;;;;;13.40;7.85;;;20.30;99.90;;;20.96;77.77;99979.72;5057943;28;20052;-75
2021/08/06 08:13:38;;;;;;;15.07;8.60;;;20.50;99.90;;;21.05;77.21;99974.66;5075829;28;20094;-79
2021/08/06 08:16:07;;;;;;;15.35;8.90;;;20.70;99.90;;;20.75;75.49;99924.56;5057566;28;20045;-76
2021/08/06 08:18:36;;;;;;;13.02;7.97;;;20.70;99.90;;;21.03;76.04;99964.97;5057730;28;20040;-73
2021/08/06 08:21:05;;;;;;;10.00;7.70;;;20.70;99.90;;;21.30;76.00;99982.94;5057800;28;20135;-76
2021/08/06 08:23:34;;;;;;;10.50;7.13;;;20.90;99.90;;;21.29;74.44;99977.66;5075838;28;20394;-72
2021/08/06 08:26:03;;;;;;;12.13;6.88;;;21.00;99.90;;;21.28;74.25;99997.44;5057576;28;20049;-78
2021/08/06 08:28:35;;;;;;;11.55;6.97;;;20.90;99.90;;;21.43;74.96;99970.44;5074432;28;20044;-76
2021/08/06 08:31:05;;;;;;;10.68;5.57;;;21.10;99.90;;;21.32;73.08;99972.06;5057575;28;20040;-78
2021/08/06 08:33:34;;;;;;;9.75;5.85;;;21.00;99.90;;;21.30;74.14;99968.63;5057430;28;20052;-78
2021/08/06 08:36:04;;;;;;;12.48;6.18;;;21.10;99.90;;;21.59;72.80;99973.03;5056983;28;20056;-76
2021/08/06 08:38:34;;;;;;;12.70;6.87;;;21.20;99.90;;;21.52;72.69;99956.41;5057207;28;20143;-79
2021/08/06 08:41:03;;;;;;;10.25;5.97;;;21.30;99.90;;;21.54;72.54;99967.09;5076712;28;20307;-79
2021/08/06 08:43:34;;;;;;;11.25;5.97;;;21.30;99.90;;;21.58;71.97;99988.31;5056812;28;20098;-75
2021/08/06 08:46:05;;;;;;;7.68;5.22;;;21.30;99.90;;;21.50;72.26;99979.84;5056845;28;20323;-76
2021/08/06 08:48:36;;;;;;;7.88;5.05;;;21.20;99.90;;;21.42;72.86;99989.38;5056800;28;20437;-81
2021/08/06 08:51:06;;;;;;;9.85;5.78;;;21.10;99.90;;;21.30;73.05;99979.38;5057183;28;20470;-82
2021/08/06 08:53:35;;;;;;;9.95;6.00;;;21.00;99.90;;;21.34;72.95;99997.94;5057047;28;20461;-73
2021/08/06 08:56:05;;;;;;;6.93;5.93;;;21.00;99.90;;;21.09;73.19;99983.41;5057176;28;20048;-74
2021/08/06 08:58:39;;;;;;;10.75;5.72;;;21.00;99.90;;;21.08;73.18;99979.00;5056838;28;20048;-73
2021/08/06 09:01:09;;;;;;;11.02;6.28;;;20.90;99.90;;;21.41;73.47;99993.03;5056101;28;20405;-74
2021/08/06 09:03:42;;;;;;;11.00;5.30;;;21.00;99.90;;;21.60;73.38;99995.44;5057076;28;20131;-74
2021/08/06 09:06:17;;;;;;;15.77;4.50;;;21.20;99.90;;;21.58;70.96;99995.53;5073867;28;20094;-75
2021/08/06 09:08:46;;;;;;;9.52;4.50;;;21.20;99.90;;;21.88;71.34;100007.06;5056986;28;20044;-74
2021/08/06 09:11:32;;;;;;;9.80;5.32;;;21.40;99.90;;;22.05;70.53;100006.81;5074400;28;20486;-76
2021/08/06 09:14:24;;;;;;;7.95;5.80;;;21.70;99.90;;;22.09;69.42;100013.75;5074581;28;20040;-75
2021/08/06 09:17:03;;;;;;;7.53;5.72;;;21.70;99.90;;;21.92;70.14;99973.59;5074400;28;20044;-75
2021/08/06 09:19:35;;;;;;;7.60;5.43;;;21.80;99.90;;;22.03;70.40;99980.94;5073892;28;20458;-74
2021/08/06 09:22:21;;;;;;;5.65;5.00;;;21.80;99.90;;;21.78;69.33;99989.72;5073329;28;20045;-76
2021/08/06 09:25:11;;;;;;;7.15;4.63;;;21.70;99.90;;;21.76;69.70;99983.56;5074402;28;20040;-75
2021/08/06 09:28:02;;;;;;;7.40;4.53;;;21.60;99.90;;;21.25;70.47;99936.63;5074580;28;20049;-74
2021/08/06 09:30:38;;;;;;;8.98;4.90;;;21.40;99.90;;;21.58;71.22;100022.47;5056865;28;20497;-74
2021/08/06 09:33:09;;;;;;;8.93;4.13;;;21.20;99.90;;;21.40;72.48;99996.69;5074127;28;20049;-75
2021/08/06 09:35:38;;;;;;;6.70;4.53;;;21.20;99.90;;;21.38;72.84;99985.16;5073916;28;20060;-74
2021/08/06 09:38:19;;;;;;;7.57;4.30;;;21.20;99.90;;;21.34;73.55;100040.13;5073902;28;20485;-75
2021/08/06 09:40:47;;;;;;;;;;;21.00;99.90;;;21.24;75.34;100017.41;5075040;28;20053;-73
2021/08/06 09:43:18;;;;;;;5.80;4.15;;;20.90;99.90;;;21.20;74.87;100010.50;5073899;28;19966;-74
2021/08/06 09:45:48;;;;;;;9.30;4.35;;;20.80;99.90;;;21.23;75.07;100002.25;5074189;28;20131;-74
2021/08/06 09:48:23;;;;;;;6.97;4.40;;;20.80;99.90;;;21.34;74.97;100005.13;5073457;28;20531;-74
2021/08/06 09:50:52;;;;;;;5.88;4.25;;;20.90;99.90;;;21.26;74.64;100004.75;5073894;28;20047;-74
2021/08/06 09:53:26;;;;;;;6.60;4.88;;;20.90;99.90;;;21.27;73.96;99999.25;5072501;28;20071;-74
2021/08/06 09:55:55;;;;;;;6.78;4.88;;;20.90;99.90;;;21.35;74.17;100020.34;5073529;28;20040;-74
2021/08/06 09:58:24;;;;;;;6.90;4.88;;;21.00;99.90;;;21.23;73.30;100013.03;5073429;28;20072;-74
2021/08/06 10:00:55;;;;;;;7.45;4.68;;;20.90;99.90;;;21.13;72.91;100001.97;5055514;28;20071;-74
2021/08/06 10:03:30;;;;;;;7.15;4.97;;;20.80;99.90;;;21.24;73.45;100014.72;5073294;28;20045;-74
2021/08/06 10:06:10;;;;;;;7.68;5.00;;;20.80;99.90;;;20.99;73.03;100018.03;5073856;28;20460;-74
2021/08/06 10:08:39;;;;;;;9.98;5.07;;;20.70;99.90;;;20.85;73.96;100004.56;5073512;28;20052;-75
2021/08/06 10:11:09;;;;;;;6.22;5.63;;;20.60;99.90;;;20.87;75.24;100029.53;5073497;28;20045;-74
2021/08/06 10:13:39;;;;;;;10.77;5.72;;;20.50;99.90;;;20.87;76.18;99991.88;5073754;28;20041;-73
2021/08/06 10:16:09;;;;;;;7.30;4.87;;;20.60;99.90;;;21.14;75.84;100014.44;5074220;28;20045;-73
2021/08/06 10:18:41;;;;;;;6.32;4.53;;;20.70;99.90;;;21.24;76.25;100012.91;5056202;28;20122;-74
2021/08/06 10:21:10;;;;;;;4.03;3.67;;;20.80;99.90;;;21.06;75.25;100021.25;5073377;28;20044;-74
2021/08/06 10:23:39;;;;;;;4.90;3.13;;;20.80;99.90;;;21.01;76.70;100042.16;5055750;28;20080;-74
2021/08/06 10:26:09;;;;;;;6.22;4.00;;;20.70;99.90;;;20.80;76.71;99992.34;5074076;28;20049;-74
2021/08/06 10:28:42;;;;;;;4.20;3.70;;;20.60;99.90;;;20.90;76.62;100023.09;5073390;28;20079;-74
2021/08/06 10:31:21;;;;;;;4.68;3.50;;;20.60;99.90;;;20.75;77.64;99989.09;5072895;28;20044;-74
2021/08/06 10:34:05;;;;;;;8.52;3.65;;;20.50;99.90;;;20.90;77.82;99997.09;5073646;28;20453;-73
2021/08/06 10:36:45;;;;;;;4.53;3.88;;;20.70;99.90;;;21.09;77.47;100007.63;5073071;28;20083;-75